Time;durP1;ratioP1;P1;durP2;ratioP2;P2;SDS_P1;SDS_P2;PMS_P1;PMS_P2;Temp;Humidity;BMP_temperature;BMP_pressure;BME280_temperature;BME280_humidity;BME280_pressure;Samples;Min_cycle;Max_cycle;Signal;HPM_P1;HPM_P2
2023/07/26 00:00:36;;;;;;;5.22;2.17;;;;;;;14.52;100.00;100961.31;5053977;28;20040;-61
2023/07/26 00:03:04;;;;;;;4.82;2.20;;;;;;;14.51;100.00;100964.94;5052580;28;20037;-60
2023/07/26 00:05:33;;;;;;;5.07;2.47;;;;;;;14.53;100.00;100963.00;5050519;28;20530;-61
2023/07/26 00:08:01;;;;;;;5.05;2.13;;;;;;;14.59;100.00;100966.97;5052296;28;20481;-59
2023/07/26 00:10:30;;;;;;;6.68;2.38;;;;;;;14.56;100.00;100967.22;5050580;28;20164;-59
2023/07/26 00:12:59;;;;;;;5.70;2.38;;;;;;;14.52;100.00;100960.50;5050626;28;20390;-59
2023/07/26 00:15:27;;;;;;;4.82;3.08;;;;;;;14.53;100.00;100947.13;5048998;28;20056;-61
2023/07/26 00:17:55;;;;;;;8.50;2.92;;;;;;;14.52;100.00;100963.13;5050202;28;20562;-61
2023/07/26 00:20:23;;;;;;;7.15;3.28;;;;;;;14.48;100.00;100956.38;5032461;28;20080;-62
2023/07/26 00:22:51;;;;;;;8.30;3.10;;;;;;;14.53;100.00;100956.84;5052538;28;20500;-60
2023/07/26 00:25:19;;;;;;;7.78;3.45;;;;;;;14.37;100.00;100957.25;5050074;28;20049;-61
2023/07/26 00:27:49;;;;;;;6.00;3.30;;;;;;;14.35;100.00;100959.19;5050956;28;20059;-62
2023/07/26 00:30:17;;;;;;;7.72;3.80;;;;;;;14.42;100.00;100962.19;5051770;28;20045;-61
2023/07/26 00:32:46;;;;;;;5.93;3.30;;;;;;;14.36;100.00;100960.88;5049500;28;20057;-61
2023/07/26 00:35:20;;;;;;;7.78;3.65;;;;;;;14.39;100.00;100971.19;5049963;28;20060;-61
2023/07/26 00:37:48;;;;;;;8.18;3.80;;;;;;;14.43;100.00;100967.34;5048923;28;20087;-61
2023/07/26 00:40:16;;;;;;;8.60;4.10;;;;;;;14.45;100.00;100969.88;5049841;28;20040;-61
2023/07/26 00:42:45;;;;;;;9.68;4.38;;;;;;;14.43;100.00;100969.16;5050582;28;20069;-60
2023/07/26 00:45:15;;;;;;;8.45;4.45;;;;;;;14.43;100.00;100975.28;5052945;28;20494;-59
2023/07/26 00:47:43;;;;;;;10.70;5.03;;;;;;;14.41;100.00;100973.72;5052848;28;20051;-59
2023/07/26 00:50:12;;;;;;;7.82;5.35;;;;;;;14.36;100.00;100976.75;5050132;28;20099;-60
2023/07/26 00:52:40;;;;;;;8.65;4.80;;;;;;;14.31;100.00;100969.16;5049206;28;20530;-59
2023/07/26 00:55:10;;;;;;;9.85;5.40;;;;;;;14.33;100.00;100975.16;5049621;28;20041;-59
2023/07/26 00:57:38;;;;;;;9.57;4.82;;;;;;;14.39;100.00;100965.91;5049693;28;20041;-58
2023/07/26 01:00:08;;;;;;;9.57;4.80;;;;;;;14.42;100.00;100970.94;5049231;28;20131;-59
2023/07/26 01:02:38;;;;;;;7.60;5.50;;;;;;;14.30;100.00;100962.19;5051648;28;20037;-59
2023/07/26 01:05:08;;;;;;;8.05;4.95;;;;;;;14.33;100.00;100958.47;5052602;28;20430;-59
2023/07/26 01:07:46;;;;;;;9.18;5.15;;;;;;;14.30;100.00;100964.84;5052650;28;20053;-59
2023/07/26 01:10:21;;;;;;;10.68;5.18;;;;;;;14.27;100.00;100958.94;5052537;28;20064;-59
2023/07/26 01:12:56;;;;;;;7.55;4.85;;;;;;;14.24;100.00;100949.44;5050151;28;20495;-60
2023/07/26 01:15:30;;;;;;;7.50;4.82;;;;;;;14.28;100.00;100952.69;5048981;28;20377;-59
2023/07/26 01:18:10;;;;;;;6.53;4.28;;;;;;;14.23;100.00;100958.34;5052336;28;20123;-59
2023/07/26 01:20:39;;;;;;;7.88;4.60;;;;;;;14.17;100.00;100957.00;5052387;28;20044;-59
2023/07/26 01:23:09;;;;;;;7.00;4.13;;;;;;;14.16;100.00;100952.69;5052580;28;20484;-59
2023/07/26 01:25:37;;;;;;;7.82;3.97;;;;;;;14.11;100.00;100959.28;5047365;28;20057;-60
2023/07/26 01:28:05;;;;;;;9.00;4.15;;;;;;;14.02;100.00;100955.59;5049925;28;20059;-59
2023/07/26 01:30:36;;;;;;;7.30;4.15;;;;;;;13.98;100.00;100954.13;5050110;28;20037;-61
2023/07/26 01:33:06;;;;;;;7.25;4.10;;;;;;;13.95;100.00;100946.47;5050549;28;20126;-61
2023/07/26 01:35:36;;;;;;;7.18;3.95;;;;;;;13.90;100.00;100954.72;5049282;28;20535;-60
2023/07/26 01:38:06;;;;;;;9.07;4.00;;;;;;;13.87;100.00;100957.63;5051660;28;20044;-60
2023/07/26 01:40:36;;;;;;;6.82;4.10;;;;;;;13.74;100.00;100952.41;5052046;28;20392;-61
2023/07/26 01:43:05;;;;;;;6.80;4.00;;;;;;;13.76;100.00;100960.25;5050437;28;20076;-61
2023/07/26 01:45:34;;;;;;;6.95;3.92;;;;;;;13.65;100.00;100955.78;5051111;28;20048;-61
2023/07/26 01:48:02;;;;;;;6.28;3.72;;;;;;;13.66;100.00;100952.16;5051820;28;20385;-60
2023/07/26 01:50:30;;;;;;;6.85;4.18;;;;;;;13.56;100.00;100952.03;5050070;28;20053;-61
2023/07/26 01:52:59;;;;;;;7.50;3.97;;;;;;;13.58;100.00;100950.13;5050124;28;20048;-60
2023/07/26 01:55:27;;;;;;;7.32;3.95;;;;;;;13.48;100.00;100950.00;5052299;28;20519;-60
2023/07/26 01:57:56;;;;;;;9.10;4.13;;;;;;;13.45;100.00;100963.41;5052185;28;20538;-60
2023/07/26 02:00:27;;;;;;;7.30;4.05;;;;;;;13.43;100.00;100956.56;5052249;28;20516;-60
2023/07/26 02:02:55;;;;;;;8.23;4.35;;;;;;;13.31;100.00;100971.50;5050076;28;20125;-61
2023/07/26 02:05:25;;;;;;;6.32;4.03;;;;;;;13.28;100.00;100969.94;5050225;28;20095;-61
2023/07/26 02:07:53;;;;;;;7.38;3.75;;;;;;;13.31;100.00;100960.94;5048356;28;20057;-61
2023/07/26 02:10:22;;;;;;;7.60;4.13;;;;;;;13.31;100.00;100960.94;5048764;28;20059;-60
2023/07/26 02:12:51;;;;;;;7.47;4.18;;;;;;;13.24;100.00;100965.84;5049378;28;20053;-59
2023/07/26 02:15:21;;;;;;;8.25;3.85;;;;;;;13.19;100.00;100958.25;5050301;28;20041;-60
2023/07/26 02:17:49;;;;;;;6.60;3.97;;;;;;;13.27;100.00;100957.69;5051276;28;20067;-60
2023/07/26 02:20:17;;;;;;;9.52;4.78;;;;;;;13.18;100.00;100961.84;5051325;28;20048;-61
2023/07/26 02:22:46;;;;;;;8.63;4.70;;;;;;;13.07;100.00;100960.97;5049155;28;20064;-60
2023/07/26 02:25:14;;;;;;;8.48;4.40;;;;;;;13.20;100.00;100951.19;5047318;28;20362;-59
2023/07/26 02:27:42;;;;;;;8.00;4.35;;;;;;;13.04;100.00;100954.09;5048628;28;20052;-59
2023/07/26 02:30:11;;;;;;;7.68;4.70;;;;;;;13.01;100.00;100951.69;5051456;28;20055;-60
2023/07/26 02:32:41;;;;;;;6.50;3.90;;;;;;;13.00;100.00;100956.13;5051416;28;20052;-59
2023/07/26 02:35:10;;;;;;;6.90;4.10;;;;;;;12.97;100.00;100951.06;5050529;28;20527;-60
2023/07/26 02:37:38;;;;;;;7.30;4.57;;;;;;;12.89;100.00;100948.16;5049281;28;20127;-61
2023/07/26 02:40:10;;;;;;;7.35;4.22;;;;;;;12.89;100.00;100949.97;5049566;28;20056;-61
2023/07/26 02:42:38;;;;;;;7.18;4.60;;;;;;;12.89;100.00;100949.97;5049236;28;20044;-60
2023/07/26 02:45:07;;;;;;;7.28;4.10;;;;;;;12.85;100.00;100947.53;5049926;28;20399;-61
2023/07/26 02:47:35;;;;;;;7.20;3.67;;;;;;;12.82;100.00;100953.03;5049280;28;20051;-61
2023/07/26 02:50:06;;;;;;;7.78;4.30;;;;;;;12.73;100.00;100958.16;5049419;28;20140;-61
2023/07/26 02:52:34;;;;;;;6.72;3.70;;;;;;;12.71;100.00;100957.41;5032925;28;20051;-60
2023/07/26 02:55:05;;;;;;;7.75;4.22;;;;;;;12.74;100.00;100960.66;5049299;28;20045;-60
2023/07/26 02:57:33;;;;;;;9.38;4.47;;;;;;;12.72;100.00;100956.44;5031423;28;20064;-60
2023/07/26 03:00:01;;;;;;;6.57;3.88;;;;;;;12.68;100.00;100955.84;5052083;28;20072;-60
2023/07/26 03:02:31;;;;;;;6.85;3.95;;;;;;;12.61;100.00;100959.88;5052364;28;20111;-60
2023/07/26 03:05:00;;;;;;;7.30;4.07;;;;;;;12.52;100.00;100961.38;5052630;28;20123;-60
2023/07/26 03:07:29;;;;;;;6.97;3.75;;;;;;;12.47;100.00;100963.50;5052736;28;20057;-61
2023/07/26 03:09:57;;;;;;;6.38;4.00;;;;;;;12.39;100.00;100956.13;5054658;28;20064;-60
2023/07/26 03:12:26;;;;;;;7.03;3.38;;;;;;;12.40;100.00;100963.09;5055116;28;20049;-61
2023/07/26 03:14:54;;;;;;;6.85;4.40;;;;;;;12.36;100.00;100958.16;5036887;28;20143;-61
2023/07/26 03:17:22;;;;;;;8.10;4.53;;;;;;;12.36;100.00;100960.78;5053025;28;20059;-61
2023/07/26 03:19:51;;;;;;;6.97;4.47;;;;;;;12.34;100.00;100959.09;5052544;28;20459;-61
2023/07/26 03:22:19;;;;;;;7.38;5.20;;;;;;;12.36;100.00;100956.34;5052766;28;20153;-60
2023/07/26 03:24:51;;;;;;;8.73;4.90;;;;;;;12.34;100.00;100963.53;5051779;28;20043;-61
2023/07/26 03:27:20;;;;;;;9.20;5.82;;;;;;;12.27;100.00;100968.41;5053299;28;20048;-60
2023/07/26 03:29:51;;;;;;;8.27;4.70;;;;;;;12.22;100.00;100969.69;5052526;28;20040;-59
2023/07/26 03:32:22;;;;;;;8.70;5.00;;;;;;;12.22;100.00;100985.50;5052298;28;20125;-60
2023/07/26 03:34:50;;;;;;;8.43;5.78;;;;;;;12.28;100.00;100974.50;5052396;28;20056;-60
2023/07/26 03:37:19;;;;;;;10.00;5.85;;;;;;;12.24;100.00;100978.31;5051905;28;20076;-59
2023/07/26 03:39:49;;;;;;;8.10;5.63;;;;;;;12.23;100.00;100981.88;5050945;28;20115;-59
2023/07/26 03:42:18;;;;;;;8.77;5.68;;;;;;;12.14;100.00;100978.94;5052781;28;20049;-59
2023/07/26 03:44:47;;;;;;;8.98;5.45;;;;;;;12.08;100.00;100989.06;5051053;28;20055;-59
2023/07/26 03:47:15;;;;;;;9.75;6.40;;;;;;;12.00;100.00;100979.91;5053885;28;20427;-60
2023/07/26 03:49:43;;;;;;;9.02;5.88;;;;;;;11.96;100.00;100977.59;5053944;28;20047;-59
2023/07/26 03:52:11;;;;;;;8.82;5.97;;;;;;;11.92;100.00;100979.56;5054136;28;20041;-59
2023/07/26 03:54:39;;;;;;;9.23;5.97;;;;;;;11.91;100.00;100985.78;5053909;28;20105;-59
2023/07/26 03:57:08;;;;;;;10.50;6.47;;;;;;;11.89;100.00;100974.50;5053924;28;20576;-59
2023/07/26 03:59:37;;;;;;;9.48;6.10;;;;;;;11.82;100.00;100970.59;5053813;28;20041;-59
2023/07/26 04:02:08;;;;;;;9.45;6.07;;;;;;;11.79;100.00;100978.72;5054017;28;20037;-59
2023/07/26 04:04:37;;;;;;;9.35;5.90;;;;;;;11.79;100.00;100982.22;5035858;28;20156;-59
2023/07/26 04:07:08;;;;;;;8.85;5.95;;;;;;;11.76;100.00;100978.94;5053167;28;20057;-59
2023/07/26 04:09:36;;;;;;;8.57;6.05;;;;;;;11.79;100.00;100982.22;5051943;28;20103;-60
2023/07/26 04:12:06;;;;;;;8.25;5.50;;;;;;;11.73;100.00;100987.03;5052762;28;20052;-60
2023/07/26 04:14:34;;;;;;;9.65;6.15;;;;;;;11.75;100.00;100990.41;5052084;28;20063;-61
2023/07/26 04:17:05;;;;;;;8.80;6.32;;;;;;;11.74;100.00;100992.22;5051436;28;20656;-58
2023/07/26 04:19:33;;;;;;;10.27;6.95;;;;;;;11.72;100.00;100988.81;5053275;28;20049;-59
2023/07/26 04:22:01;;;;;;;10.02;6.70;;;;;;;11.72;100.00;100978.28;5052221;28;20373;-60
2023/07/26 04:24:29;;;;;;;10.32;7.05;;;;;;;11.78;100.00;100984.91;5048940;28;20058;-59
2023/07/26 04:26:58;;;;;;;9.32;6.57;;;;;;;11.79;100.00;100992.75;5050097;28;20052;-59
2023/07/26 04:29:26;;;;;;;9.68;6.88;;;;;;;11.80;100.00;100980.41;5053399;28;20549;-60
2023/07/26 04:31:54;;;;;;;10.05;6.47;;;;;;;11.78;100.00;100984.91;5053462;28;20124;-60
2023/07/26 04:34:23;;;;;;;9.88;6.75;;;;;;;11.83;100.00;100986.31;5051393;28;20052;-59
2023/07/26 04:36:52;;;;;;;10.38;7.22;;;;;;;11.83;100.00;100980.19;5051034;28;20049;-59
2023/07/26 04:39:20;;;;;;;11.43;8.25;;;;;;;11.84;100.00;100979.25;5052033;28;20103;-59
2023/07/26 04:41:48;;;;;;;10.50;7.70;;;;;;;11.88;100.00;100983.34;5052942;28;20499;-59
2023/07/26 04:44:16;;;;;;;11.52;8.25;;;;;;;11.87;100.00;100986.94;5053101;28;20045;-60
2023/07/26 04:46:45;;;;;;;11.98;9.07;;;;;;;11.83;100.00;100983.69;5052669;28;20041;-60
2023/07/26 04:49:13;;;;;;;11.93;8.68;;;;;;;12.00;100.00;100986.97;5033896;28;20400;-60
2023/07/26 04:51:43;;;;;;;12.60;8.32;;;;;;;11.97;100.00;100987.16;5049894;28;20045;-60
2023/07/26 04:54:17;;;;;;;11.15;8.35;;;;;;;11.96;100.00;100982.88;5052677;28;20048;-60
2023/07/26 04:56:45;;;;;;;12.18;8.90;;;;;;;11.95;100.00;100984.66;5052578;28;20231;-60
2023/07/26 04:59:13;;;;;;;11.95;8.98;;;;;;;11.98;100.00;100984.47;5052071;28;20040;-60
2023/07/26 05:01:41;;;;;;;11.70;9.02;;;;;;;12.00;100.00;100979.06;5052054;28;20045;-60
2023/07/26 05:04:10;;;;;;;13.02;8.75;;;;;;;11.99;100.00;100977.38;5051924;28;20124;-60
2023/07/26 05:06:38;;;;;;;11.82;8.75;;;;;;;12.03;100.00;100972.75;5030526;28;20412;-60
2023/07/26 05:09:08;;;;;;;12.35;8.27;;;;;;;12.07;100.00;100974.22;5053164;28;20076;-60
2023/07/26 05:11:36;;;;;;;11.02;8.82;;;;;;;12.13;100.00;100973.78;5051720;28;20045;-60
2023/07/26 05:14:04;;;;;;;15.18;9.30;;;;;;;12.14;100.00;100981.59;5052274;28;20048;-60
2023/07/26 05:16:32;;;;;;;15.20;8.80;;;;;;;12.21;100.00;100982.00;5052135;28;20045;-60
2023/07/26 05:19:01;;;;;;;13.48;8.68;;;;;;;12.30;100.00;100973.44;5052167;28;20051;-60
2023/07/26 05:21:29;;;;;;;11.90;9.35;;;;;;;12.40;100.00;100978.09;5051323;28;20041;-60
2023/07/26 05:23:58;;;;;;;11.25;9.07;;;;;;;12.42;100.00;100981.44;5050264;28;20053;-60
2023/07/26 05:26:28;;;;;;;11.82;9.32;;;;;;;12.54;100.00;100985.00;5051912;28;20041;-60
2023/07/26 05:28:56;;;;;;;11.70;9.43;;;;;;;12.61;100.00;100986.25;5051695;28;20045;-60
2023/07/26 05:31:24;;;;;;;14.60;9.45;;;;;;;12.62;100.00;100982.66;5034820;28;20056;-61
2023/07/26 05:33:52;;;;;;;14.00;10.45;;;;;;;12.62;100.00;100988.78;5051209;28;20051;-60
2023/07/26 05:36:20;;;;;;;12.70;9.80;;;;;;;12.75;100.00;100994.03;5050781;28;20124;-61
2023/07/26 05:38:48;;;;;;;14.38;9.90;;;;;;;12.80;100.00;100994.56;5049776;28;20049;-61
2023/07/26 05:41:16;;;;;;;20.55;10.63;;;;;;;12.84;100.00;100993.38;5050691;28;20139;-59
2023/07/26 05:43:46;;;;;;;12.85;9.88;;;;;;;12.91;100.00;100983.22;5050281;28;20037;-60
2023/07/26 05:46:14;;;;;;;14.85;10.30;;;;;;;12.98;100.00;100991.53;5050416;28;20037;-61
2023/07/26 05:48:43;;;;;;;13.23;9.20;;;;;;;13.04;100.00;100980.50;5050307;28;20589;-60
2023/07/26 05:51:11;;;;;;;12.15;9.70;;;;;;;13.08;100.00;100986.41;5051631;28;20048;-60
2023/07/26 05:53:39;;;;;;;12.80;9.23;;;;;;;13.13;100.00;100986.91;5034774;28;20045;-60
2023/07/26 05:56:08;;;;;;;16.20;9.85;;;;;;;13.21;100.00;100996.91;5034572;28;20068;-60
2023/07/26 05:58:36;;;;;;;11.73;9.45;;;;;;;13.27;100.00;100999.09;5052241;28;20045;-60
2023/07/26 06:01:06;;;;;;;13.30;9.52;;;;;;;13.35;100.00;100988.81;5052103;28;20045;-59
2023/07/26 06:03:34;;;;;;;14.27;9.75;;;;;;;13.44;100.00;100992.59;5050538;28;20045;-59
2023/07/26 06:06:03;;;;;;;13.02;9.95;;;;;;;13.50;100.00;100992.97;5049479;28;20488;-59
2023/07/26 06:08:32;;;;;;;12.73;9.20;;;;;;;13.57;100.00;100996.00;5051020;28;20052;-59
2023/07/26 06:11:00;;;;;;;12.85;9.10;;;;;;;13.67;100.00;100994.34;5051724;28;20099;-59
2023/07/26 06:13:28;;;;;;;14.15;9.20;;;;;;;13.86;100.00;100985.88;5033243;28;20508;-58
2023/07/26 06:15:56;;;;;;;12.93;9.25;;;;;;;13.83;100.00;100986.06;5048482;28;20076;-59
2023/07/26 06:18:26;;;;;;;13.45;8.98;;;;;;;13.91;100.00;100984.66;5049619;28;20089;-59
2023/07/26 06:20:54;;;;;;;12.88;8.25;;;;;;;13.98;100.00;100997.28;5049704;28;20040;-59
2023/07/26 06:23:22;;;;;;;12.77;8.52;;;;;;;14.08;100.00;100993.91;5047222;28;20575;-59
2023/07/26 06:25:51;;;;;;;14.35;8.57;;;;;;;14.23;100.00;101007.75;5050707;28;20060;-59
2023/07/26 06:28:19;;;;;;;12.82;8.80;;;;;;;14.39;100.00;101004.75;5050914;28;20040;-59
2023/07/26 06:30:47;;;;;;;10.98;8.60;;;;;;;14.48;100.00;101007.50;5051139;28;20111;-60
2023/07/26 06:33:18;;;;;;;15.27;9.45;;;;;;;14.62;100.00;101016.16;5051406;28;20048;-59
2023/07/26 06:35:48;;;;;;;12.55;9.73;;;;;;;14.74;100.00;101024.94;5054280;28;20525;-59
2023/07/26 06:38:16;;;;;;;12.80;8.95;;;;;;;14.91;100.00;101024.44;5055341;28;20049;-60
2023/07/26 06:40:44;;;;;;;12.43;8.90;;;;;;;14.99;100.00;101027.31;5055291;28;20048;-59
2023/07/26 06:43:13;;;;;;;14.75;8.88;;;;;;;15.07;100.00;101034.63;5054769;28;20057;-58
2023/07/26 06:45:45;;;;;;;14.30;9.52;;;;;;;15.14;100.00;101040.28;5055820;28;20095;-59
2023/07/26 06:48:13;;;;;;;14.02;9.13;;;;;;;15.20;100.00;101043.28;5037533;28;20114;-60
2023/07/26 06:50:42;;;;;;;12.88;8.60;;;;;;;15.23;100.00;101054.56;5055258;28;20053;-59
2023/07/26 06:53:11;;;;;;;15.32;9.15;;;;;;;15.31;100.00;101055.66;5034766;28;20049;-59
2023/07/26 06:55:40;;;;;;;14.95;8.80;;;;;;;15.36;100.00;101056.09;5052498;28;20049;-60
2023/07/26 06:58:11;;;;;;;11.57;9.15;;;;;;;15.46;100.00;101058.84;5053081;28;20048;-59
2023/07/26 07:00:39;;;;;;;11.98;8.65;;;;;;;15.54;100.00;101059.06;5052205;28;20041;-59
2023/07/26 07:03:07;;;;;;;13.20;9.93;;;;;;;15.54;100.00;101053.75;5052804;28;20049;-59
2023/07/26 07:05:36;;;;;;;13.88;9.07;;;;;;;15.57;100.00;101054.44;5052461;28;20052;-59
2023/07/26 07:08:05;;;;;;;13.45;9.48;;;;;;;15.61;100.00;101056.75;5054960;28;20047;-60
2023/07/26 07:10:34;;;;;;;12.30;9.25;;;;;;;15.60;100.00;101059.50;5054882;28;20052;-59
2023/07/26 07:13:02;;;;;;;13.57;9.85;;;;;;;15.66;100.00;101066.94;5055330;28;20099;-59
2023/07/26 07:15:31;;;;;;;12.95;9.35;;;;;;;15.70;100.00;101069.19;5055145;28;20044;-60
2023/07/26 07:17:59;;;;;;;18.90;11.35;;;;;;;16.00;100.00;101070.28;5054323;28;20045;-50
2023/07/26 07:22:07;;;;;;;14.73;10.30;;;;;;;16.68;100.00;101093.69;5085949;27;20612;-56
2023/07/26 07:24:36;;;;;;;14.13;10.02;;;;;;;15.80;100.00;101089.69;5088731;28;20051;-55
2023/07/26 07:27:05;;;;;;;15.73;11.57;;;;;;;15.36;100.00;101100.31;5015868;27;191916;-56
2023/07/26 07:29:33;;;;;;;23.35;16.95;;;;;;;16.10;100.00;101088.94;5022777;28;20044;-61
2023/07/26 07:32:01;;;;;;;14.93;9.75;;;;;;;17.71;100.00;101110.28;5034833;28;20091;-57
2023/07/26 07:34:47;;;;;;;14.23;9.40;;;;;;;17.44;100.00;101118.94;5031001;28;20061;-58
2023/07/26 07:37:17;;;;;;;15.93;10.13;;;;;;;17.00;100.00;101119.28;5039103;28;73438;-59
2023/07/26 07:39:45;;;;;;;15.15;10.57;;;;;;;16.46;100.00;101120.41;5039026;28;20053;-59
2023/07/26 07:42:13;;;;;;;15.90;10.40;;;;;;;16.18;100.00;101114.78;5042667;28;20041;-59
2023/07/26 07:44:41;;;;;;;16.00;10.02;;;;;;;15.80;100.00;101121.50;5044600;28;20072;-59
2023/07/26 07:47:09;;;;;;;15.23;9.73;;;;;;;15.13;100.00;101128.66;5023016;28;211702;-59
2023/07/26 07:49:41;;;;;;;15.55;9.88;;;;;;;15.23;100.00;101126.09;5042592;28;20099;-57
2023/07/26 07:52:09;;;;;;;12.43;7.28;;;;;;;15.11;100.00;101133.25;5039880;28;20501;-59
2023/07/26 07:54:39;;;;;;;10.70;5.50;;;;;;;14.80;100.00;101133.84;4939270;28;122000;-63
2023/07/26 07:57:07;;;;;;;8.05;4.30;;;;;;;14.54;100.00;101135.84;5011656;28;20050;-63
2023/07/26 07:59:36;;;;;;;4.43;2.38;;;;;;;14.24;100.00;101133.78;5035968;28;20056;-63
2023/07/26 08:02:05;;;;;;;3.92;2.03;;;;;;;13.96;100.00;101118.19;5018628;28;20056;-63
2023/07/26 08:04:33;;;;;;;4.93;2.45;;;;;;;13.75;100.00;101107.41;5003831;28;20686;-63
2023/07/26 08:07:01;;;;;;;3.35;2.00;;;;;;;13.88;100.00;101094.13;5015516;28;20103;-63
2023/07/26 08:09:30;;;;;;;4.07;2.05;;;;;;;13.93;100.00;101088.47;5022914;28;20049;-58
2023/07/26 08:11:59;;;;;;;3.75;2.00;;;;;;;13.84;100.00;101084.75;5024816;28;20037;-58
2023/07/26 08:14:27;;;;;;;4.10;1.77;;;;;;;13.97;100.00;101080.19;5024472;28;20525;-58
2023/07/26 08:16:56;;;;;;;3.95;2.00;;;;;;;14.08;100.00;101073.25;5023996;28;20046;-58
2023/07/26 08:19:24;;;;;;;4.53;2.10;;;;;;;14.06;100.00;101080.44;5024059;28;20046;-58
2023/07/26 08:21:52;;;;;;;4.40;2.20;;;;;;;14.23;100.00;101073.88;5017943;28;20054;-58
2023/07/26 08:24:21;;;;;;;4.57;2.08;;;;;;;14.22;100.00;101074.84;5018674;28;20064;-62
2023/07/26 08:26:49;;;;;;;4.70;2.17;;;;;;;14.26;100.00;101071.84;5021421;28;20073;-62
2023/07/26 08:29:19;;;;;;;6.20;2.45;;;;;;;14.35;100.00;101075.59;5018892;28;20054;-57
2023/07/26 08:31:47;;;;;;;5.57;2.42;;;;;;;14.72;100.00;101069.25;5013327;28;20042;-57
2023/07/26 08:34:16;;;;;;;6.00;2.83;;;;;;;14.86;100.00;101075.13;5004896;28;20176;-62
2023/07/26 08:36:44;;;;;;;4.82;2.78;;;;;;;15.06;100.00;101079.78;5002867;28;20390;-62
2023/07/26 08:39:12;;;;;;;4.95;2.63;;;;;;;15.32;100.00;101070.56;5003768;28;20069;-62
2023/07/26 08:42:01;;;;;;;4.72;2.45;;;;;;;15.58;100.00;101072.88;5008123;28;20050;-62
2023/07/26 08:44:34;;;;;;;4.40;2.10;;;;;;;15.66;100.00;101069.59;5009929;28;20065;-57
2023/07/26 08:47:05;;;;;;;4.80;2.15;;;;;;;15.86;100.00;101065.31;5010346;28;20081;-61
2023/07/26 08:49:34;;;;;;;3.17;1.23;;;;;;;16.11;100.00;101066.72;5009843;28;20050;-61
2023/07/26 08:52:07;;;;;;;3.95;1.67;;;;;;;16.43;100.00;101071.09;5005875;28;20036;-60
2023/07/26 08:54:36;;;;;;;3.55;1.40;;;;;;;16.52;100.00;101077.41;5002100;28;20098;-57
2023/07/26 08:57:04;;;;;;;2.97;1.50;;;;;;;16.79;100.00;101070.66;5007110;28;20819;-57
2023/07/26 08:59:34;;;;;;;2.75;1.60;;;;;;;16.89;100.00;101077.72;5004024;28;20045;-57
2023/07/26 09:02:05;;;;;;;3.55;1.88;;;;;;;17.12;100.00;101069.50;5006714;28;20049;-57
2023/07/26 09:04:34;;;;;;;7.13;2.72;;;;;;;17.38;100.00;101076.97;5002263;28;20076;-57
2023/07/26 09:07:03;;;;;;;3.85;1.88;;;;;;;17.57;100.00;101081.44;5001821;28;20037;-58
2023/07/26 09:09:32;;;;;;;4.03;2.25;;;;;;;17.84;100.00;101072.75;5007380;28;20049;-57
2023/07/26 09:12:02;;;;;;;4.53;2.15;;;;;;;18.20;100.00;101078.31;5007102;28;20100;-57
2023/07/26 09:14:32;;;;;;;4.55;2.30;;;;;;;18.23;100.00;101071.88;5002446;28;20045;-57
2023/07/26 09:17:04;;;;;;;6.75;2.90;;;;;;;17.87;100.00;101075.16;5002361;28;20704;-57
2023/07/26 09:19:34;;;;;;;6.83;3.07;;;;;;;18.16;100.00;101076.06;5000051;28;20135;-57
2023/07/26 09:22:05;;;;;;;5.70;2.90;;;;;;;18.34;100.00;101066.38;5000457;28;20490;-57
2023/07/26 09:24:35;;;;;;;6.53;3.13;;;;;;;18.84;100.00;101075.84;5001144;28;20049;-58
2023/07/26 09:27:06;;;;;;;6.65;2.95;;;;;;;19.31;100.00;101066.03;5005430;28;20161;-58
2023/07/26 09:29:35;;;;;;;7.70;4.07;;;;;;;19.53;100.00;101065.56;5002978;28;20042;-58
2023/07/26 09:32:06;;;;;;;7.05;3.65;;;;;;;19.90;100.00;101063.72;5010620;28;20041;-57
2023/07/26 09:34:35;;;;;;;7.75;4.40;;;;;;;20.20;100.00;101056.22;5009337;28;20129;-57
2023/07/26 09:37:05;;;;;;;7.88;4.78;;;;;;;20.37;100.00;101060.66;5012612;28;20462;-58
2023/07/26 09:39:34;;;;;;;9.20;5.10;;;;;;;20.44;100.00;101056.34;5007533;28;20053;-58
2023/07/26 09:42:07;;;;;;;7.45;5.05;;;;;;;20.36;100.00;101050.97;5003758;28;20409;-57
2023/07/26 09:44:36;;;;;;;10.35;5.53;;;;;;;20.54;100.00;101050.06;5009442;28;20050;-61
2023/07/26 09:47:09;;;;;;;8.43;5.13;;;;;;;20.93;100.00;101054.91;5013456;28;20524;-61
2023/07/26 09:49:50;;;;;;;10.15;5.55;;;;;;;21.30;100.00;101052.78;5012433;28;20050;-61
2023/07/26 09:52:40;;;;;;;10.80;5.65;;;;;;;21.47;100.00;101049.13;5003888;28;20066;-57
2023/07/26 09:55:09;;;;;;;8.95;5.75;;;;;;;21.56;100.00;101055.38;4995812;28;20049;-61
2023/07/26 09:57:49;;;;;;;8.55;5.10;;;;;;;21.81;100.00;101056.19;5006407;28;20053;-59
2023/07/26 10:00:17;;;;;;;9.13;5.50;;;;;;;21.63;100.00;101053.69;5006788;28;20045;-60
2023/07/26 10:02:55;;;;;;;8.82;5.20;;;;;;;21.72;100.00;101052.69;5007575;28;20062;-59
2023/07/26 10:05:26;;;;;;;8.45;5.20;;;;;;;22.18;100.00;101051.25;5009009;28;20475;-59
2023/07/26 10:07:57;;;;;;;12.68;5.80;;;;;;;22.33;100.00;101046.84;5011647;28;20053;-59
2023/07/26 10:10:29;;;;;;;13.05;5.10;;;;;;;22.45;100.00;101058.06;4994381;28;20132;-58
2023/07/26 10:12:58;;;;;;;13.00;5.53;;;;;;;22.36;100.00;101040.34;5010516;28;20056;-59
2023/07/26 10:15:30;;;;;;;9.55;4.90;;;;;;;22.26;100.00;101049.41;5009981;28;20053;-57
2023/07/26 10:18:00;;;;;;;9.50;5.70;;;;;;;22.45;100.00;101048.22;5010879;28;20073;-58
2023/07/26 10:20:29;;;;;;;8.82;5.35;;;;;;;23.10;100.00;101059.59;5010040;28;20474;-58
2023/07/26 10:23:04;;;;;;;9.25;4.93;;;;;;;22.90;100.00;101050.34;5011661;28;20058;-58
2023/07/26 10:25:33;;;;;;;13.18;5.53;;;;;;;22.65;100.00;101042.44;5010515;28;20448;-58
2023/07/26 10:28:06;;;;;;;12.75;5.38;;;;;;;22.98;100.00;101042.25;5011544;28;20053;-58
2023/07/26 10:30:34;;;;;;;41.38;8.43;;;;;;;22.87;100.00;101045.34;5010953;28;20069;-58
2023/07/26 10:33:12;;;;;;;11.63;6.30;;;;;;;22.61;100.00;101054.50;5006780;28;20124;-56
2023/07/26 10:35:42;;;;;;;9.00;5.50;;;;;;;22.40;100.00;101063.13;5007763;28;20450;-57
2023/07/26 10:38:13;;;;;;;10.20;4.85;;;;;;;21.83;100.00;101058.69;5005597;28;20626;-58
2023/07/26 10:40:43;;;;;;;10.90;5.15;;;;;;;20.89;100.00;101058.91;4995097;28;20049;-58
2023/07/26 10:43:39;;;;;;;7.70;4.20;;;;;;;20.22;100.00;101059.56;5008082;28;20493;-58
2023/07/26 10:46:13;;;;;;;9.50;4.47;;;;;;;20.00;100.00;101058.28;5011372;28;20080;-58
2023/07/26 10:48:57;;;;;;;7.88;4.10;;;;;;;20.15;100.00;101061.19;5007894;28;20405;-58
2023/07/26 10:51:31;;;;;;;7.07;3.22;;;;;;;19.65;100.00;101057.34;5010019;28;20041;-58
2023/07/26 10:54:00;;;;;;;6.88;3.05;;;;;;;19.62;100.00;101041.63;5003136;28;20123;-58
2023/07/26 10:56:32;;;;;;;5.35;2.55;;;;;;;19.94;100.00;101051.72;5010741;28;20077;-58
2023/07/26 10:59:25;;;;;;;4.75;2.13;;;;;;;19.37;100.00;101055.59;5007773;28;20124;-58
2023/07/26 11:02:06;;;;;;;6.40;2.67;;;;;;;19.27;100.00;101060.16;5008705;28;20041;-58
2023/07/26 11:04:45;;;;;;;7.40;2.92;;;;;;;19.37;100.00;101049.41;5007126;28;20494;-59
2023/07/26 11:07:20;;;;;;;6.72;2.80;;;;;;;19.68;100.00;101063.19;5008781;28;20394;-57
2023/07/26 11:09:50;;;;;;;6.43;3.17;;;;;;;19.85;100.00;101058.84;5003046;28;20121;-57
2023/07/26 11:12:24;;;;;;;;;;;;;;;19.82;100.00;101056.47;5009285;28;20049;-57
2023/07/26 11:14:56;;;;;;;7.97;3.22;;;;;;;19.85;100.00;101058.00;5010482;28;19921;-58
2023/07/26 11:17:45;;;;;;;6.57;3.40;;;;;;;20.58;100.00;101059.44;4996109;28;20049;-57
2023/07/26 11:20:15;;;;;;;6.78;3.53;;;;;;;20.76;100.00;101054.00;5008127;28;20478;-57
2023/07/26 11:22:43;;;;;;;8.57;3.63;;;;;;;21.15;100.00;101049.97;5008144;28;20526;-58
2023/07/26 11:25:12;;;;;;;7.50;3.92;;;;;;;21.53;100.00;101047.66;5006144;28;20405;-57
2023/07/26 11:27:41;;;;;;;7.22;3.72;;;;;;;21.79;100.00;101044.81;5007709;28;20450;-58